sensor_id;sensor_type;location;lat;lon;timestamp;temperature;humidity
39925;DHT22;25592;49.986;11.618;2023-05-07T00:01:55;16.30;88.30
39925;DHT22;25592;49.986;11.618;2023-05-07T00:04:41;16.30;88.50
39925;DHT22;25592;49.986;11.618;2023-05-07T00:07:26;16.30;88.30
39925;DHT22;25592;49.986;11.618;2023-05-07T00:10:12;16.20;88.40
39925;DHT22;25592;49.986;11.618;2023-05-07T00:12:57;16.20;88.30
39925;DHT22;25592;49.986;11.618;2023-05-07T00:15:43;16.20;88.30
39925;DHT22;25592;49.986;11.618;2023-05-07T00:18:28;16.20;88.90
39925;DHT22;25592;49.986;11.618;2023-05-07T00:21:14;16.20;89.30
39925;DHT22;25592;49.986;11.618;2023-05-07T00:23:59;15.90;89.80
39925;DHT22;25592;49.986;11.618;2023-05-07T00:26:45;15.90;90.00
39925;DHT22;25592;49.986;11.618;2023-05-07T00:29:30;15.90;89.90
39925;DHT22;25592;49.986;11.618;2023-05-07T00:32:15;15.90;89.70
39925;DHT22;25592;49.986;11.618;2023-05-07T00:35:01;15.90;89.70
39925;DHT22;25592;49.986;11.618;2023-05-07T00:37:46;16.00;89.40
39925;DHT22;25592;49.986;11.618;2023-05-07T00:40:31;16.00;89.20
39925;DHT22;25592;49.986;11.618;2023-05-07T00:43:17;16.00;89.40
39925;DHT22;25592;49.986;11.618;2023-05-07T00:46:02;16.10;89.60
39925;DHT22;25592;49.986;11.618;2023-05-07T00:48:48;16.00;89.70
39925;DHT22;25592;49.986;11.618;2023-05-07T00:51:34;16.10;89.60
39925;DHT22;25592;49.986;11.618;2023-05-07T00:54:20;16.10;89.50
39925;DHT22;25592;49.986;11.618;2023-05-07T00:57:06;16.00;89.70
39925;DHT22;25592;49.986;11.618;2023-05-07T00:59:53;16.00;89.50
39925;DHT22;25592;49.986;11.618;2023-05-07T01:02:39;15.90;89.50
39925;DHT22;25592;49.986;11.618;2023-05-07T01:05:25;15.90;89.80
39925;DHT22;25592;49.986;11.618;2023-05-07T01:08:11;15.90;89.60
39925;DHT22;25592;49.986;11.618;2023-05-07T01:10:57;15.90;89.80
39925;DHT22;25592;49.986;11.618;2023-05-07T01:13:43;15.80;89.30
39925;DHT22;25592;49.986;11.618;2023-05-07T01:16:28;15.90;89.10
39925;DHT22;25592;49.986;11.618;2023-05-07T01:19:19;15.70;89.10
39925;DHT22;25592;49.986;11.618;2023-05-07T01:22:08;15.70;89.20
39925;DHT22;25592;49.986;11.618;2023-05-07T01:24:54;15.70;89.30
39925;DHT22;25592;49.986;11.618;2023-05-07T01:27:41;15.70;89.20
39925;DHT22;25592;49.986;11.618;2023-05-07T01:30:26;15.70;89.20
39925;DHT22;25592;49.986;11.618;2023-05-07T01:33:15;15.70;89.20
39925;DHT22;25592;49.986;11.618;2023-05-07T01:36:01;15.60;89.60
39925;DHT22;25592;49.986;11.618;2023-05-07T01:38:49;15.60;89.90
39925;DHT22;25592;49.986;11.618;2023-05-07T01:41:35;15.50;90.10
39925;DHT22;25592;49.986;11.618;2023-05-07T01:44:21;15.50;90.20
39925;DHT22;25592;49.986;11.618;2023-05-07T01:47:07;15.60;90.40
39925;DHT22;25592;49.986;11.618;2023-05-07T01:49:52;15.60;90.50
39925;DHT22;25592;49.986;11.618;2023-05-07T01:52:38;15.60;90.60
39925;DHT22;25592;49.986;11.618;2023-05-07T01:55:24;15.70;90.60
39925;DHT22;25592;49.986;11.618;2023-05-07T01:58:09;15.70;90.60
39925;DHT22;25592;49.986;11.618;2023-05-07T02:00:55;15.70;90.70
39925;DHT22;25592;49.986;11.618;2023-05-07T02:03:41;15.60;90.80
39925;DHT22;25592;49.986;11.618;2023-05-07T02:06:27;15.40;91.00
39925;DHT22;25592;49.986;11.618;2023-05-07T02:09:13;15.50;90.80
39925;DHT22;25592;49.986;11.618;2023-05-07T02:12:03;15.50;90.90
39925;DHT22;25592;49.986;11.618;2023-05-07T02:14:48;15.50;90.80
39925;DHT22;25592;49.986;11.618;2023-05-07T02:17:34;15.50;90.90
39925;DHT22;25592;49.986;11.618;2023-05-07T02:20:19;15.60;90.90
39925;DHT22;25592;49.986;11.618;2023-05-07T02:23:04;15.50;90.90
39925;DHT22;25592;49.986;11.618;2023-05-07T02:25:50;15.50;90.90
39925;DHT22;25592;49.986;11.618;2023-05-07T02:28:35;15.50;91.00
39925;DHT22;25592;49.986;11.618;2023-05-07T02:31:21;15.50;91.20
39925;DHT22;25592;49.986;11.618;2023-05-07T02:34:06;15.20;91.50
39925;DHT22;25592;49.986;11.618;2023-05-07T02:36:51;15.20;91.50
39925;DHT22;25592;49.986;11.618;2023-05-07T02:39:37;15.40;91.10
39925;DHT22;25592;49.986;11.618;2023-05-07T02:42:22;15.40;91.10
39925;DHT22;25592;49.986;11.618;2023-05-07T02:45:08;15.50;91.00
39925;DHT22;25592;49.986;11.618;2023-05-07T02:47:53;15.50;90.90
39925;DHT22;25592;49.986;11.618;2023-05-07T02:50:39;15.40;90.70
39925;DHT22;25592;49.986;11.618;2023-05-07T02:53:24;15.20;90.80
39925;DHT22;25592;49.986;11.618;2023-05-07T02:56:14;15.20;90.80
39925;DHT22;25592;49.986;11.618;2023-05-07T02:58:59;15.20;90.80
39925;DHT22;25592;49.986;11.618;2023-05-07T03:01:44;15.20;90.80
39925;DHT22;25592;49.986;11.618;2023-05-07T03:04:30;15.20;90.50
39925;DHT22;25592;49.986;11.618;2023-05-07T03:07:16;15.20;90.50
39925;DHT22;25592;49.986;11.618;2023-05-07T03:10:02;15.10;90.90
39925;DHT22;25592;49.986;11.618;2023-05-07T03:12:47;15.00;91.00
39925;DHT22;25592;49.986;11.618;2023-05-07T03:15:32;14.70;91.60
39925;DHT22;25592;49.986;11.618;2023-05-07T03:18:17;14.70;91.70
39925;DHT22;25592;49.986;11.618;2023-05-07T03:21:03;14.60;91.70
39925;DHT22;25592;49.986;11.618;2023-05-07T03:23:48;14.50;91.80
39925;DHT22;25592;49.986;11.618;2023-05-07T03:26:33;14.50;92.30
39925;DHT22;25592;49.986;11.618;2023-05-07T03:29:19;14.40;92.40
39925;DHT22;25592;49.986;11.618;2023-05-07T03:32:04;14.30;92.30
39925;DHT22;25592;49.986;11.618;2023-05-07T03:34:50;14.40;92.40
39925;DHT22;25592;49.986;11.618;2023-05-07T03:37:36;14.50;92.10
39925;DHT22;25592;49.986;11.618;2023-05-07T03:40:21;14.70;92.00
39925;DHT22;25592;49.986;11.618;2023-05-07T03:43:06;14.70;91.90
39925;DHT22;25592;49.986;11.618;2023-05-07T03:45:52;14.80;91.90
39925;DHT22;25592;49.986;11.618;2023-05-07T03:48:37;14.80;91.90
39925;DHT22;25592;49.986;11.618;2023-05-07T03:51:23;14.80;91.90
39925;DHT22;25592;49.986;11.618;2023-05-07T03:54:08;14.80;91.90
39925;DHT22;25592;49.986;11.618;2023-05-07T03:56:54;14.80;91.60
39925;DHT22;25592;49.986;11.618;2023-05-07T03:59:39;14.80;91.80
39925;DHT22;25592;49.986;11.618;2023-05-07T04:02:25;14.80;91.90
39925;DHT22;25592;49.986;11.618;2023-05-07T04:05:10;14.80;91.90
39925;DHT22;25592;49.986;11.618;2023-05-07T04:07:55;14.80;92.00
39925;DHT22;25592;49.986;11.618;2023-05-07T04:10:41;14.90;91.80
39925;DHT22;25592;49.986;11.618;2023-05-07T04:13:26;14.80;91.80
39925;DHT22;25592;49.986;11.618;2023-05-07T04:16:12;14.80;91.90
39925;DHT22;25592;49.986;11.618;2023-05-07T04:18:57;14.80;92.00
39925;DHT22;25592;49.986;11.618;2023-05-07T04:21:43;14.70;91.90
39925;DHT22;25592;49.986;11.618;2023-05-07T04:24:31;14.50;92.30
39925;DHT22;25592;49.986;11.618;2023-05-07T04:27:17;14.50;92.30
39925;DHT22;25592;49.986;11.618;2023-05-07T04:30:03;14.30;92.50
39925;DHT22;25592;49.986;11.618;2023-05-07T04:32:49;13.90;93.30
39925;DHT22;25592;49.986;11.618;2023-05-07T04:35:35;13.80;93.20
39925;DHT22;25592;49.986;11.618;2023-05-07T04:38:20;13.50;94.10
39925;DHT22;25592;49.986;11.618;2023-05-07T04:41:06;13.50;94.10
39925;DHT22;25592;49.986;11.618;2023-05-07T04:43:51;13.60;94.00
39925;DHT22;25592;49.986;11.618;2023-05-07T04:46:37;13.80;93.80
39925;DHT22;25592;49.986;11.618;2023-05-07T04:49:22;13.90;93.70
39925;DHT22;25592;49.986;11.618;2023-05-07T04:52:07;14.00;93.70
39925;DHT22;25592;49.986;11.618;2023-05-07T04:54:53;14.10;93.50
39925;DHT22;25592;49.986;11.618;2023-05-07T04:57:38;14.30;93.20
39925;DHT22;25592;49.986;11.618;2023-05-07T05:00:25;14.50;93.10
39925;DHT22;25592;49.986;11.618;2023-05-07T05:03:11;14.50;93.00
39925;DHT22;25592;49.986;11.618;2023-05-07T05:05:56;14.50;92.90
39925;DHT22;25592;49.986;11.618;2023-05-07T05:08:44;14.60;92.90
39925;DHT22;25592;49.986;11.618;2023-05-07T05:11:30;14.80;92.40
39925;DHT22;25592;49.986;11.618;2023-05-07T05:14:15;14.80;92.70
39925;DHT22;25592;49.986;11.618;2023-05-07T05:17:01;14.80;92.80
39925;DHT22;25592;49.986;11.618;2023-05-07T05:19:46;14.90;92.80
39925;DHT22;25592;49.986;11.618;2023-05-07T05:22:32;14.90;92.80
39925;DHT22;25592;49.986;11.618;2023-05-07T05:25:17;14.80;92.80
39925;DHT22;25592;49.986;11.618;2023-05-07T05:28:03;14.90;93.00
39925;DHT22;25592;49.986;11.618;2023-05-07T05:30:49;14.90;92.70
39925;DHT22;25592;49.986;11.618;2023-05-07T05:33:34;14.90;92.80
39925;DHT22;25592;49.986;11.618;2023-05-07T05:36:20;14.90;92.80
39925;DHT22;25592;49.986;11.618;2023-05-07T05:39:05;14.90;92.80
39925;DHT22;25592;49.986;11.618;2023-05-07T05:41:50;14.90;92.80
39925;DHT22;25592;49.986;11.618;2023-05-07T05:44:36;15.00;92.80
39925;DHT22;25592;49.986;11.618;2023-05-07T05:47:22;14.90;92.80
39925;DHT22;25592;49.986;11.618;2023-05-07T05:50:08;15.00;92.90
39925;DHT22;25592;49.986;11.618;2023-05-07T05:52:53;15.10;92.90
39925;DHT22;25592;49.986;11.618;2023-05-07T05:55:39;15.00;92.90
39925;DHT22;25592;49.986;11.618;2023-05-07T05:58:24;15.10;92.80
39925;DHT22;25592;49.986;11.618;2023-05-07T06:01:09;15.10;92.70
39925;DHT22;25592;49.986;11.618;2023-05-07T06:03:56;15.00;93.50
39925;DHT22;25592;49.986;11.618;2023-05-07T06:06:41;15.00;93.40
39925;DHT22;25592;49.986;11.618;2023-05-07T06:09:27;15.00;93.50
39925;DHT22;25592;49.986;11.618;2023-05-07T06:12:13;15.00;93.70
39925;DHT22;25592;49.986;11.618;2023-05-07T06:14:59;15.10;93.60
39925;DHT22;25592;49.986;11.618;2023-05-07T06:17:44;15.10;93.70
39925;DHT22;25592;49.986;11.618;2023-05-07T06:20:30;15.30;93.10
39925;DHT22;25592;49.986;11.618;2023-05-07T06:23:15;15.40;93.30
39925;DHT22;25592;49.986;11.618;2023-05-07T06:26:02;15.50;92.70
39925;DHT22;25592;49.986;11.618;2023-05-07T06:28:48;15.60;93.30
39925;DHT22;25592;49.986;11.618;2023-05-07T06:31:33;15.60;93.10
39925;DHT22;25592;49.986;11.618;2023-05-07T06:34:19;15.70;93.00
39925;DHT22;25592;49.986;11.618;2023-05-07T06:37:05;15.60;93.10
39925;DHT22;25592;49.986;11.618;2023-05-07T06:39:51;15.60;92.90
39925;DHT22;25592;49.986;11.618;2023-05-07T06:42:36;15.70;92.70
39925;DHT22;25592;49.986;11.618;2023-05-07T06:45:23;15.70;93.00
39925;DHT22;25592;49.986;11.618;2023-05-07T06:48:10;15.70;93.10
39925;DHT22;25592;49.986;11.618;2023-05-07T06:50:56;15.70;93.00
39925;DHT22;25592;49.986;11.618;2023-05-07T06:53:43;15.80;93.00
39925;DHT22;25592;49.986;11.618;2023-05-07T06:56:28;15.80;93.30
39925;DHT22;25592;49.986;11.618;2023-05-07T06:59:14;16.00;93.20
39925;DHT22;25592;49.986;11.618;2023-05-07T07:02:00;16.00;93.10
39925;DHT22;25592;49.986;11.618;2023-05-07T07:04:46;16.20;93.30
39925;DHT22;25592;49.986;11.618;2023-05-07T07:07:31;16.30;93.20
39925;DHT22;25592;49.986;11.618;2023-05-07T07:10:17;16.40;93.00
39925;DHT22;25592;49.986;11.618;2023-05-07T07:13:02;16.50;93.30
39925;DHT22;25592;49.986;11.618;2023-05-07T07:15:47;16.60;92.90
39925;DHT22;25592;49.986;11.618;2023-05-07T07:18:33;16.70;93.40
39925;DHT22;25592;49.986;11.618;2023-05-07T07:21:18;17.00;92.80
39925;DHT22;25592;49.986;11.618;2023-05-07T07:24:04;17.10;92.70
39925;DHT22;25592;49.986;11.618;2023-05-07T07:26:49;17.10;92.90
39925;DHT22;25592;49.986;11.618;2023-05-07T07:29:35;17.10;92.80
39925;DHT22;25592;49.986;11.618;2023-05-07T07:32:20;17.20;92.70
39925;DHT22;25592;49.986;11.618;2023-05-07T07:35:06;17.40;92.70
39925;DHT22;25592;49.986;11.618;2023-05-07T07:37:52;17.30;92.80
39925;DHT22;25592;49.986;11.618;2023-05-07T07:40:37;17.30;92.80
39925;DHT22;25592;49.986;11.618;2023-05-07T07:43:23;17.40;92.80
39925;DHT22;25592;49.986;11.618;2023-05-07T07:46:08;17.50;93.00
39925;DHT22;25592;49.986;11.618;2023-05-07T07:48:53;17.60;92.70
39925;DHT22;25592;49.986;11.618;2023-05-07T07:51:39;17.70;92.80
39925;DHT22;25592;49.986;11.618;2023-05-07T07:54:25;17.70;92.70
39925;DHT22;25592;49.986;11.618;2023-05-07T07:57:10;17.80;92.80
39925;DHT22;25592;49.986;11.618;2023-05-07T07:59:56;17.70;92.70
39925;DHT22;25592;49.986;11.618;2023-05-07T08:02:42;17.80;92.70
39925;DHT22;25592;49.986;11.618;2023-05-07T08:05:27;17.70;92.40
39925;DHT22;25592;49.986;11.618;2023-05-07T08:08:13;17.80;92.40
39925;DHT22;25592;49.986;11.618;2023-05-07T08:10:58;17.90;92.50
39925;DHT22;25592;49.986;11.618;2023-05-07T08:13:44;18.10;92.40
39925;DHT22;25592;49.986;11.618;2023-05-07T08:16:30;18.20;92.30
39925;DHT22;25592;49.986;11.618;2023-05-07T08:19:16;18.10;92.20
39925;DHT22;25592;49.986;11.618;2023-05-07T08:22:02;18.10;92.10
39925;DHT22;25592;49.986;11.618;2023-05-07T08:24:48;18.20;92.20
39925;DHT22;25592;49.986;11.618;2023-05-07T08:27:33;18.40;92.00
39925;DHT22;25592;49.986;11.618;2023-05-07T08:30:18;18.40;92.10
39925;DHT22;25592;49.986;11.618;2023-05-07T08:33:04;18.50;92.10
39925;DHT22;25592;49.986;11.618;2023-05-07T08:35:49;18.60;91.90
39925;DHT22;25592;49.986;11.618;2023-05-07T08:38:35;18.70;91.90
39925;DHT22;25592;49.986;11.618;2023-05-07T08:41:20;18.60;91.70
39925;DHT22;25592;49.986;11.618;2023-05-07T08:44:11;18.70;91.70
39925;DHT22;25592;49.986;11.618;2023-05-07T08:46:58;18.80;91.90
39925;DHT22;25592;49.986;11.618;2023-05-07T08:49:44;18.90;91.60
39925;DHT22;25592;49.986;11.618;2023-05-07T08:52:30;19.00;91.40
39925;DHT22;25592;49.986;11.618;2023-05-07T08:55:16;19.00;91.00
39925;DHT22;25592;49.986;11.618;2023-05-07T08:58:02;18.80;90.70
39925;DHT22;25592;49.986;11.618;2023-05-07T09:00:47;18.90;91.00
39925;DHT22;25592;49.986;11.618;2023-05-07T09:03:33;18.90;91.40
39925;DHT22;25592;49.986;11.618;2023-05-07T09:06:18;19.00;91.20
39925;DHT22;25592;49.986;11.618;2023-05-07T09:09:04;18.80;91.10
39925;DHT22;25592;49.986;11.618;2023-05-07T09:11:57;18.80;90.90
39925;DHT22;25592;49.986;11.618;2023-05-07T09:14:45;18.90;91.20
39925;DHT22;25592;49.986;11.618;2023-05-07T09:17:31;19.10;91.20
39925;DHT22;25592;49.986;11.618;2023-05-07T09:20:16;19.10;91.10
39925;DHT22;25592;49.986;11.618;2023-05-07T09:23:02;19.30;90.80
39925;DHT22;25592;49.986;11.618;2023-05-07T09:25:48;19.30;90.90
39925;DHT22;25592;49.986;11.618;2023-05-07T09:28:33;19.50;91.10
39925;DHT22;25592;49.986;11.618;2023-05-07T09:31:19;19.50;90.30
39925;DHT22;25592;49.986;11.618;2023-05-07T09:34:06;19.60;90.50
39925;DHT22;25592;49.986;11.618;2023-05-07T09:36:51;19.80;90.40
39925;DHT22;25592;49.986;11.618;2023-05-07T09:39:44;19.90;90.40
39925;DHT22;25592;49.986;11.618;2023-05-07T09:42:29;19.90;90.40
39925;DHT22;25592;49.986;11.618;2023-05-07T09:45:16;19.90;89.70
39925;DHT22;25592;49.986;11.618;2023-05-07T09:48:05;19.90;90.10
39925;DHT22;25592;49.986;11.618;2023-05-07T09:50:52;20.10;90.40
39925;DHT22;25592;49.986;11.618;2023-05-07T09:53:40;20.10;89.20
39925;DHT22;25592;49.986;11.618;2023-05-07T09:56:26;20.20;88.50
39925;DHT22;25592;49.986;11.618;2023-05-07T09:59:16;20.20;89.70
39925;DHT22;25592;49.986;11.618;2023-05-07T10:02:01;20.30;88.90
39925;DHT22;25592;49.986;11.618;2023-05-07T10:04:49;20.40;88.20
39925;DHT22;25592;49.986;11.618;2023-05-07T10:07:35;20.30;89.30
39925;DHT22;25592;49.986;11.618;2023-05-07T10:10:21;20.30;88.10
39925;DHT22;25592;49.986;11.618;2023-05-07T10:13:06;20.20;88.50
39925;DHT22;25592;49.986;11.618;2023-05-07T10:15:56;20.30;88.30
39925;DHT22;25592;49.986;11.618;2023-05-07T10:18:43;20.40;87.70
39925;DHT22;25592;49.986;11.618;2023-05-07T10:21:29;20.50;88.80
39925;DHT22;25592;49.986;11.618;2023-05-07T10:24:32;20.60;87.10
39925;DHT22;25592;49.986;11.618;2023-05-07T10:27:19;20.60;86.70
39925;DHT22;25592;49.986;11.618;2023-05-07T10:33:13;20.60;84.70
39925;DHT22;25592;49.986;11.618;2023-05-07T10:36:01;20.60;84.70
39925;DHT22;25592;49.986;11.618;2023-05-07T10:38:48;20.70;84.30
39925;DHT22;25592;49.986;11.618;2023-05-07T10:41:33;20.70;83.30
39925;DHT22;25592;49.986;11.618;2023-05-07T10:44:28;20.80;83.70
39925;DHT22;25592;49.986;11.618;2023-05-07T10:47:16;20.90;82.60
39925;DHT22;25592;49.986;11.618;2023-05-07T11:02:16;21.50;82.40
39925;DHT22;25592;49.986;11.618;2023-05-07T11:05:21;21.50;80.80
39925;DHT22;25592;49.986;11.618;2023-05-07T11:08:07;21.50;80.00
39925;DHT22;25592;49.986;11.618;2023-05-07T11:10:55;21.60;80.60
39925;DHT22;25592;49.986;11.618;2023-05-07T11:13:48;21.70;79.70
39925;DHT22;25592;49.986;11.618;2023-05-07T11:16:35;21.80;79.00
39925;DHT22;25592;49.986;11.618;2023-05-07T11:20:15;21.60;78.30
39925;DHT22;25592;49.986;11.618;2023-05-07T11:22:53;21.50;77.80
39925;DHT22;25592;49.986;11.618;2023-05-07T11:25:41;21.50;77.80
39925;DHT22;25592;49.986;11.618;2023-05-07T11:28:30;21.70;77.70
39925;DHT22;25592;49.986;11.618;2023-05-07T11:31:21;21.70;75.30
39925;DHT22;25592;49.986;11.618;2023-05-07T11:34:08;21.70;75.50
39925;DHT22;25592;49.986;11.618;2023-05-07T11:36:54;21.60;75.60
39925;DHT22;25592;49.986;11.618;2023-05-07T11:39:40;22.00;76.00
39925;DHT22;25592;49.986;11.618;2023-05-07T11:42:31;22.10;76.60
39925;DHT22;25592;49.986;11.618;2023-05-07T11:45:23;22.40;75.00
39925;DHT22;25592;49.986;11.618;2023-05-07T11:48:16;22.90;76.10
39925;DHT22;25592;49.986;11.618;2023-05-07T11:51:03;23.10;74.70
39925;DHT22;25592;49.986;11.618;2023-05-07T11:53:49;23.40;74.10
39925;DHT22;25592;49.986;11.618;2023-05-07T11:56:35;23.30;74.10
39925;DHT22;25592;49.986;11.618;2023-05-07T11:59:20;23.30;73.80
39925;DHT22;25592;49.986;11.618;2023-05-07T12:02:06;23.50;73.60
39925;DHT22;25592;49.986;11.618;2023-05-07T12:04:52;24.00;74.00
39925;DHT22;25592;49.986;11.618;2023-05-07T12:07:38;24.10;72.70
39925;DHT22;25592;49.986;11.618;2023-05-07T12:10:24;24.30;72.10
39925;DHT22;25592;49.986;11.618;2023-05-07T12:13:21;24.50;72.30
39925;DHT22;25592;49.986;11.618;2023-05-07T12:16:07;24.50;71.90
39925;DHT22;25592;49.986;11.618;2023-05-07T12:18:53;24.70;71.40
39925;DHT22;25592;49.986;11.618;2023-05-07T12:21:40;24.80;71.70
39925;DHT22;25592;49.986;11.618;2023-05-07T12:24:26;25.20;72.20
39925;DHT22;25592;49.986;11.618;2023-05-07T12:27:11;25.10;70.40
39925;DHT22;25592;49.986;11.618;2023-05-07T12:29:58;24.90;72.60
39925;DHT22;25592;49.986;11.618;2023-05-07T12:32:45;24.80;72.40
39925;DHT22;25592;49.986;11.618;2023-05-07T12:35:32;24.70;72.80
39925;DHT22;25592;49.986;11.618;2023-05-07T12:38:20;25.00;72.30
39925;DHT22;25592;49.986;11.618;2023-05-07T12:41:07;24.80;70.90
39925;DHT22;25592;49.986;11.618;2023-05-07T12:43:56;24.60;71.20
39925;DHT22;25592;49.986;11.618;2023-05-07T12:46:42;24.40;72.70
39925;DHT22;25592;49.986;11.618;2023-05-07T12:49:27;24.50;72.20
39925;DHT22;25592;49.986;11.618;2023-05-07T12:52:13;24.50;71.20
39925;DHT22;25592;49.986;11.618;2023-05-07T12:55:07;24.80;70.70
39925;DHT22;25592;49.986;11.618;2023-05-07T12:57:53;25.20;69.50
39925;DHT22;25592;49.986;11.618;2023-05-07T13:00:39;25.20;69.20
39925;DHT22;25592;49.986;11.618;2023-05-07T13:03:32;25.50;68.00
39925;DHT22;25592;49.986;11.618;2023-05-07T13:06:17;25.40;68.90
39925;DHT22;25592;49.986;11.618;2023-05-07T13:09:03;25.60;68.10
39925;DHT22;25592;49.986;11.618;2023-05-07T13:11:49;25.40;69.10
39925;DHT22;25592;49.986;11.618;2023-05-07T13:14:34;25.20;68.30
39925;DHT22;25592;49.986;11.618;2023-05-07T13:17:20;24.80;68.00
39925;DHT22;25592;49.986;11.618;2023-05-07T13:20:06;24.80;69.50
39925;DHT22;25592;49.986;11.618;2023-05-07T13:22:53;25.00;69.90
39925;DHT22;25592;49.986;11.618;2023-05-07T13:25:38;25.60;68.60
39925;DHT22;25592;49.986;11.618;2023-05-07T13:28:24;26.00;67.80
39925;DHT22;25592;49.986;11.618;2023-05-07T13:31:10;26.20;69.00
39925;DHT22;25592;49.986;11.618;2023-05-07T13:33:55;26.20;69.20
39925;DHT22;25592;49.986;11.618;2023-05-07T13:36:41;26.00;68.10
39925;DHT22;25592;49.986;11.618;2023-05-07T13:39:27;25.90;68.90
39925;DHT22;25592;49.986;11.618;2023-05-07T13:42:12;25.50;67.60
39925;DHT22;25592;49.986;11.618;2023-05-07T13:44:58;25.30;69.80
39925;DHT22;25592;49.986;11.618;2023-05-07T13:47:44;25.20;69.90
39925;DHT22;25592;49.986;11.618;2023-05-07T13:50:29;25.00;68.70
39925;DHT22;25592;49.986;11.618;2023-05-07T13:53:15;24.80;68.80
39925;DHT22;25592;49.986;11.618;2023-05-07T13:56:03;24.80;68.90
39925;DHT22;25592;49.986;11.618;2023-05-07T13:58:49;24.70;71.30
39925;DHT22;25592;49.986;11.618;2023-05-07T14:01:44;24.60;71.50
39925;DHT22;25592;49.986;11.618;2023-05-07T14:04:30;24.60;71.60
39925;DHT22;25592;49.986;11.618;2023-05-07T14:07:16;24.60;72.20
39925;DHT22;25592;49.986;11.618;2023-05-07T14:10:01;24.60;70.20
39925;DHT22;25592;49.986;11.618;2023-05-07T14:12:47;24.70;71.00
39925;DHT22;25592;49.986;11.618;2023-05-07T14:15:33;24.70;71.00
39925;DHT22;25592;49.986;11.618;2023-05-07T14:18:18;24.70;70.60
39925;DHT22;25592;49.986;11.618;2023-05-07T14:21:04;24.60;70.20
39925;DHT22;25592;49.986;11.618;2023-05-07T14:23:51;24.70;71.30
39925;DHT22;25592;49.986;11.618;2023-05-07T14:26:36;24.80;69.90
39925;DHT22;25592;49.986;11.618;2023-05-07T14:29:22;24.70;70.60
39925;DHT22;25592;49.986;11.618;2023-05-07T14:32:08;24.40;69.40
39925;DHT22;25592;49.986;11.618;2023-05-07T14:34:53;24.20;71.00
39925;DHT22;25592;49.986;11.618;2023-05-07T14:37:39;23.90;70.70
39925;DHT22;25592;49.986;11.618;2023-05-07T14:40:24;24.00;72.90
39925;DHT22;25592;49.986;11.618;2023-05-07T14:43:10;24.20;73.20
39925;DHT22;25592;49.986;11.618;2023-05-07T14:45:55;24.10;71.40
39925;DHT22;25592;49.986;11.618;2023-05-07T14:48:41;24.10;71.50
39925;DHT22;25592;49.986;11.618;2023-05-07T14:51:26;24.10;71.30
39925;DHT22;25592;49.986;11.618;2023-05-07T14:54:13;24.00;71.80
39925;DHT22;25592;49.986;11.618;2023-05-07T14:56:59;23.80;70.50
39925;DHT22;25592;49.986;11.618;2023-05-07T14:59:45;23.70;71.10
39925;DHT22;25592;49.986;11.618;2023-05-07T15:02:30;23.60;70.90
39925;DHT22;25592;49.986;11.618;2023-05-07T15:05:16;23.60;71.80
39925;DHT22;25592;49.986;11.618;2023-05-07T15:08:02;23.60;72.30
39925;DHT22;25592;49.986;11.618;2023-05-07T15:10:48;23.50;72.60
39925;DHT22;25592;49.986;11.618;2023-05-07T15:13:33;23.40;71.90
39925;DHT22;25592;49.986;11.618;2023-05-07T15:16:19;23.40;72.60
39925;DHT22;25592;49.986;11.618;2023-05-07T15:19:04;23.40;71.40
39925;DHT22;25592;49.986;11.618;2023-05-07T15:21:50;23.40;73.10
39925;DHT22;25592;49.986;11.618;2023-05-07T15:24:35;23.40;72.30
39925;DHT22;25592;49.986;11.618;2023-05-07T15:27:21;23.40;72.30
39925;DHT22;25592;49.986;11.618;2023-05-07T15:30:07;23.40;72.30
39925;DHT22;25592;49.986;11.618;2023-05-07T15:32:55;23.30;71.30
39925;DHT22;25592;49.986;11.618;2023-05-07T15:35:40;23.20;70.10
39925;DHT22;25592;49.986;11.618;2023-05-07T15:38:26;22.90;70.80
39925;DHT22;25592;49.986;11.618;2023-05-07T15:41:11;23.00;72.10
39925;DHT22;25592;49.986;11.618;2023-05-07T15:43:57;23.10;73.30
39925;DHT22;25592;49.986;11.618;2023-05-07T15:46:42;23.10;74.90
39925;DHT22;25592;49.986;11.618;2023-05-07T15:49:28;23.20;75.60
39925;DHT22;25592;49.986;11.618;2023-05-07T15:52:13;23.20;75.80
39925;DHT22;25592;49.986;11.618;2023-05-07T15:54:59;23.20;75.80
39925;DHT22;25592;49.986;11.618;2023-05-07T15:57:45;23.30;76.50
39925;DHT22;25592;49.986;11.618;2023-05-07T16:00:30;23.30;76.60
39925;DHT22;25592;49.986;11.618;2023-05-07T16:03:15;23.20;75.90
39925;DHT22;25592;49.986;11.618;2023-05-07T16:06:03;23.20;74.40
39925;DHT22;25592;49.986;11.618;2023-05-07T16:08:49;23.20;76.70
39925;DHT22;25592;49.986;11.618;2023-05-07T16:11:34;23.00;77.70
39925;DHT22;25592;49.986;11.618;2023-05-07T16:14:20;22.80;77.30
39925;DHT22;25592;49.986;11.618;2023-05-07T16:17:06;22.70;77.90
39925;DHT22;25592;49.986;11.618;2023-05-07T16:19:52;22.50;78.10
39925;DHT22;25592;49.986;11.618;2023-05-07T16:22:38;22.40;78.30
39925;DHT22;25592;49.986;11.618;2023-05-07T16:25:23;22.30;78.20
39925;DHT22;25592;49.986;11.618;2023-05-07T16:28:08;22.00;78.00
39925;DHT22;25592;49.986;11.618;2023-05-07T16:30:54;21.90;78.50
39925;DHT22;25592;49.986;11.618;2023-05-07T16:33:39;21.70;79.30
39925;DHT22;25592;49.986;11.618;2023-05-07T16:36:28;21.60;79.80
39925;DHT22;25592;49.986;11.618;2023-05-07T16:39:13;21.50;79.90
39925;DHT22;25592;49.986;11.618;2023-05-07T16:41:59;21.40;80.10
39925;DHT22;25592;49.986;11.618;2023-05-07T16:44:44;21.40;80.40
39925;DHT22;25592;49.986;11.618;2023-05-07T16:47:30;21.40;80.40
39925;DHT22;25592;49.986;11.618;2023-05-07T16:50:15;21.40;80.30
39925;DHT22;25592;49.986;11.618;2023-05-07T16:53:01;21.40;81.10
39925;DHT22;25592;49.986;11.618;2023-05-07T16:55:46;21.30;80.30
39925;DHT22;25592;49.986;11.618;2023-05-07T16:58:31;21.20;80.60
39925;DHT22;25592;49.986;11.618;2023-05-07T17:01:19;21.10;81.10
39925;DHT22;25592;49.986;11.618;2023-05-07T17:04:05;21.10;80.80
39925;DHT22;25592;49.986;11.618;2023-05-07T17:06:51;21.00;81.50
39925;DHT22;25592;49.986;11.618;2023-05-07T17:09:36;20.90;81.80
39925;DHT22;25592;49.986;11.618;2023-05-07T17:12:22;20.90;81.90
39925;DHT22;25592;49.986;11.618;2023-05-07T17:15:08;20.80;82.30
39925;DHT22;25592;49.986;11.618;2023-05-07T17:17:54;20.80;81.90
39925;DHT22;25592;49.986;11.618;2023-05-07T17:20:40;20.70;82.40
39925;DHT22;25592;49.986;11.618;2023-05-07T17:23:26;20.60;82.20
39925;DHT22;25592;49.986;11.618;2023-05-07T17:26:15;20.50;82.30
39925;DHT22;25592;49.986;11.618;2023-05-07T17:29:01;20.50;82.20